sensor_id;sensor_type;location;lat;lon;timestamp;temperature;humidity
52656;SHT85;35474;51.032;6.998;2023-02-01T00:00:31;7.06;85.10
52656;SHT85;35474;51.032;6.998;2023-02-01T00:02:59;7.07;84.95
52656;SHT85;35474;51.032;6.998;2023-02-01T00:05:26;7.06;85.00
52656;SHT85;35474;51.032;6.998;2023-02-01T00:07:52;7.06;84.80
52656;SHT85;35474;51.032;6.998;2023-02-01T00:10:19;7.03;84.46
52656;SHT85;35474;51.032;6.998;2023-02-01T00:12:46;7.05;84.57
52656;SHT85;35474;51.032;6.998;2023-02-01T00:15:13;7.07;84.80
52656;SHT85;35474;51.032;6.998;2023-02-01T00:17:39;7.10;85.23
52656;SHT85;35474;51.032;6.998;2023-02-01T00:20:06;7.12;85.72
52656;SHT85;35474;51.032;6.998;2023-02-01T00:22:33;7.06;86.12
52656;SHT85;35474;51.032;6.998;2023-02-01T00:25:02;7.05;86.62
52656;SHT85;35474;51.032;6.998;2023-02-01T00:27:29;7.03;87.03
52656;SHT85;35474;51.032;6.998;2023-02-01T00:29:57;7.03;87.29
52656;SHT85;35474;51.032;6.998;2023-02-01T00:32:24;7.02;87.31
52656;SHT85;35474;51.032;6.998;2023-02-01T00:34:50;7.06;87.28
52656;SHT85;35474;51.032;6.998;2023-02-01T00:37:17;7.05;86.89
52656;SHT85;35474;51.032;6.998;2023-02-01T00:39:43;7.03;87.16
52656;SHT85;35474;51.032;6.998;2023-02-01T00:42:10;7.05;86.78
52656;SHT85;35474;51.032;6.998;2023-02-01T00:44:37;6.99;86.64
52656;SHT85;35474;51.032;6.998;2023-02-01T00:47:03;6.93;86.62
52656;SHT85;35474;51.032;6.998;2023-02-01T00:49:30;6.92;86.41
52656;SHT85;35474;51.032;6.998;2023-02-01T00:51:57;6.95;85.94
52656;SHT85;35474;51.032;6.998;2023-02-01T00:54:24;6.89;85.48
52656;SHT85;35474;51.032;6.998;2023-02-01T00:56:50;6.95;84.57
52656;SHT85;35474;51.032;6.998;2023-02-01T01:00:34;6.86;83.96
52656;SHT85;35474;51.032;6.998;2023-02-01T01:03:01;6.81;84.16
52656;SHT85;35474;51.032;6.998;2023-02-01T01:05:31;6.78;83.52
52656;SHT85;35474;51.032;6.998;2023-02-01T01:07:57;6.76;83.14
52656;SHT85;35474;51.032;6.998;2023-02-01T01:10:24;6.68;83.23
52656;SHT85;35474;51.032;6.998;2023-02-01T01:12:50;6.72;81.99
52656;SHT85;35474;51.032;6.998;2023-02-01T01:15:17;6.74;81.05
52656;SHT85;35474;51.032;6.998;2023-02-01T01:17:44;6.72;80.42
52656;SHT85;35474;51.032;6.998;2023-02-01T01:20:10;6.71;80.16
52656;SHT85;35474;51.032;6.998;2023-02-01T01:22:37;6.75;79.92
52656;SHT85;35474;51.032;6.998;2023-02-01T01:25:04;6.74;79.36
52656;SHT85;35474;51.032;6.998;2023-02-01T01:27:31;6.78;78.72
52656;SHT85;35474;51.032;6.998;2023-02-01T01:29:59;6.78;78.72
52656;SHT85;35474;51.032;6.998;2023-02-01T01:32:27;6.74;78.23
52656;SHT85;35474;51.032;6.998;2023-02-01T01:34:54;6.64;78.71
52656;SHT85;35474;51.032;6.998;2023-02-01T01:37:20;6.61;78.81
52656;SHT85;35474;51.032;6.998;2023-02-01T01:39:47;6.60;78.61
52656;SHT85;35474;51.032;6.998;2023-02-01T01:42:13;6.61;78.56
52656;SHT85;35474;51.032;6.998;2023-02-01T01:47:35;6.51;78.87
52656;SHT85;35474;51.032;6.998;2023-02-01T01:50:08;6.51;78.74
52656;SHT85;35474;51.032;6.998;2023-02-01T01:52:37;6.44;78.88
52656;SHT85;35474;51.032;6.998;2023-02-01T01:55:05;6.35;79.07
52656;SHT85;35474;51.032;6.998;2023-02-01T01:57:33;6.42;78.96
52656;SHT85;35474;51.032;6.998;2023-02-01T02:00:05;6.42;79.01
52656;SHT85;35474;51.032;6.998;2023-02-01T02:02:34;6.38;78.99
52656;SHT85;35474;51.032;6.998;2023-02-01T02:05:03;6.34;79.31
52656;SHT85;35474;51.032;6.998;2023-02-01T02:07:33;6.33;79.43
52656;SHT85;35474;51.032;6.998;2023-02-01T02:10:05;6.34;79.31
52656;SHT85;35474;51.032;6.998;2023-02-01T02:12:41;6.40;78.95
52656;SHT85;35474;51.032;6.998;2023-02-01T02:15:10;6.35;79.13
52656;SHT85;35474;51.032;6.998;2023-02-01T02:17:44;6.37;78.99
52656;SHT85;35474;51.032;6.998;2023-02-01T02:33:50;6.44;78.74
52656;SHT85;35474;51.032;6.998;2023-02-01T02:45:29;6.48;78.72
52656;SHT85;35474;51.032;6.998;2023-02-01T02:48:28;6.52;78.54
52656;SHT85;35474;51.032;6.998;2023-02-01T02:51:00;6.54;78.42
52656;SHT85;35474;51.032;6.998;2023-02-01T02:56:48;6.49;78.43
52656;SHT85;35474;51.032;6.998;2023-02-01T02:59:34;6.52;78.33
52656;SHT85;35474;51.032;6.998;2023-02-01T03:02:22;6.49;78.28
52656;SHT85;35474;51.032;6.998;2023-02-01T03:05:08;6.54;78.45
52656;SHT85;35474;51.032;6.998;2023-02-01T03:07:53;6.54;78.49
52656;SHT85;35474;51.032;6.998;2023-02-01T03:16:06;6.55;79.46
52656;SHT85;35474;51.032;6.998;2023-02-01T03:18:53;6.51;80.03
52656;SHT85;35474;51.032;6.998;2023-02-01T03:21:26;6.47;80.41
52656;SHT85;35474;51.032;6.998;2023-02-01T03:24:08;6.44;80.89
52656;SHT85;35474;51.032;6.998;2023-02-01T03:27:04;6.41;81.30
52656;SHT85;35474;51.032;6.998;2023-02-01T03:29:39;6.45;81.54
52656;SHT85;35474;51.032;6.998;2023-02-01T03:32:28;6.47;81.58
52656;SHT85;35474;51.032;6.998;2023-02-01T03:35:15;6.44;81.85
52656;SHT85;35474;51.032;6.998;2023-02-01T03:37:43;6.44;82.05
52656;SHT85;35474;51.032;6.998;2023-02-01T03:40:10;6.42;82.17
52656;SHT85;35474;51.032;6.998;2023-02-01T03:42:43;6.44;82.09
52656;SHT85;35474;51.032;6.998;2023-02-01T03:45:17;6.51;81.98
52656;SHT85;35474;51.032;6.998;2023-02-01T03:47:50;6.52;81.50
52656;SHT85;35474;51.032;6.998;2023-02-01T03:50:21;6.47;81.78
52656;SHT85;35474;51.032;6.998;2023-02-01T03:52:56;6.44;81.77
52656;SHT85;35474;51.032;6.998;2023-02-01T03:55:28;6.48;81.75
52656;SHT85;35474;51.032;6.998;2023-02-01T03:58:06;6.56;81.20
52656;SHT85;35474;51.032;6.998;2023-02-01T04:00:37;6.60;80.69
52656;SHT85;35474;51.032;6.998;2023-02-01T04:03:05;6.60;80.85
52656;SHT85;35474;51.032;6.998;2023-02-01T04:05:35;6.49;81.27
52656;SHT85;35474;51.032;6.998;2023-02-01T04:08:01;6.54;80.97
52656;SHT85;35474;51.032;6.998;2023-02-01T04:10:29;6.51;81.04
52656;SHT85;35474;51.032;6.998;2023-02-01T04:12:55;6.56;80.78
52656;SHT85;35474;51.032;6.998;2023-02-01T04:15:22;6.51;80.66
52656;SHT85;35474;51.032;6.998;2023-02-01T04:17:48;6.52;80.22
52656;SHT85;35474;51.032;6.998;2023-02-01T04:20:15;6.55;79.92
52656;SHT85;35474;51.032;6.998;2023-02-01T04:22:43;6.56;80.02
52656;SHT85;35474;51.032;6.998;2023-02-01T04:25:10;6.52;79.93
52656;SHT85;35474;51.032;6.998;2023-02-01T04:27:36;6.52;80.02
52656;SHT85;35474;51.032;6.998;2023-02-01T04:30:03;6.56;79.69
52656;SHT85;35474;51.032;6.998;2023-02-01T04:32:30;6.51;79.82
52656;SHT85;35474;51.032;6.998;2023-02-01T04:34:57;6.51;79.42
52656;SHT85;35474;51.032;6.998;2023-02-01T04:37:24;6.54;79.43
52656;SHT85;35474;51.032;6.998;2023-02-01T04:39:50;6.54;79.18
52656;SHT85;35474;51.032;6.998;2023-02-01T04:42:16;6.52;79.29
52656;SHT85;35474;51.032;6.998;2023-02-01T04:44:44;6.45;79.24
52656;SHT85;35474;51.032;6.998;2023-02-01T04:47:11;6.38;79.17
52656;SHT85;35474;51.032;6.998;2023-02-01T04:49:37;6.34;79.43
52656;SHT85;35474;51.032;6.998;2023-02-01T04:52:04;6.31;79.44
52656;SHT85;35474;51.032;6.998;2023-02-01T04:54:30;6.28;79.48
52656;SHT85;35474;51.032;6.998;2023-02-01T04:56:57;6.24;79.57
52656;SHT85;35474;51.032;6.998;2023-02-01T04:59:23;6.23;79.54
52656;SHT85;35474;51.032;6.998;2023-02-01T05:01:50;6.23;79.49
52656;SHT85;35474;51.032;6.998;2023-02-01T05:04:16;6.24;79.45
52656;SHT85;35474;51.032;6.998;2023-02-01T05:06:45;6.24;79.38
52656;SHT85;35474;51.032;6.998;2023-02-01T05:09:11;6.24;79.06
52656;SHT85;35474;51.032;6.998;2023-02-01T05:11:38;6.21;79.36
52656;SHT85;35474;51.032;6.998;2023-02-01T05:14:23;6.23;79.08
52656;SHT85;35474;51.032;6.998;2023-02-01T05:16:49;6.20;79.40
52656;SHT85;35474;51.032;6.998;2023-02-01T05:19:16;6.20;79.19
52656;SHT85;35474;51.032;6.998;2023-02-01T05:21:42;6.21;79.28
52656;SHT85;35474;51.032;6.998;2023-02-01T05:24:09;6.18;79.20
52656;SHT85;35474;51.032;6.998;2023-02-01T05:26:36;6.09;79.53
52656;SHT85;35474;51.032;6.998;2023-02-01T05:29:04;6.00;79.78
52656;SHT85;35474;51.032;6.998;2023-02-01T05:31:31;5.99;79.86
52656;SHT85;35474;51.032;6.998;2023-02-01T05:33:57;6.00;79.86
52656;SHT85;35474;51.032;6.998;2023-02-01T05:36:25;5.93;79.97
52656;SHT85;35474;51.032;6.998;2023-02-01T05:38:51;5.89;80.01
52656;SHT85;35474;51.032;6.998;2023-02-01T05:41:18;5.90;79.85
52656;SHT85;35474;51.032;6.998;2023-02-01T05:43:44;5.92;79.77
52656;SHT85;35474;51.032;6.998;2023-02-01T05:46:11;5.89;79.84
52656;SHT85;35474;51.032;6.998;2023-02-01T05:48:39;6.00;79.05
52656;SHT85;35474;51.032;6.998;2023-02-01T05:51:06;5.96;79.11
52656;SHT85;35474;51.032;6.998;2023-02-01T05:53:34;5.97;79.15
52656;SHT85;35474;51.032;6.998;2023-02-01T05:56:01;5.92;79.26
52656;SHT85;35474;51.032;6.998;2023-02-01T05:58:28;5.97;79.16
52656;SHT85;35474;51.032;6.998;2023-02-01T06:00:54;5.95;79.15
52656;SHT85;35474;51.032;6.998;2023-02-01T06:03:20;5.86;79.40
52656;SHT85;35474;51.032;6.998;2023-02-01T06:05:47;5.87;79.36
52656;SHT85;35474;51.032;6.998;2023-02-01T06:08:14;5.89;79.20
52656;SHT85;35474;51.032;6.998;2023-02-01T06:10:41;5.95;78.85
52656;SHT85;35474;51.032;6.998;2023-02-01T06:13:07;5.87;79.21
52656;SHT85;35474;51.032;6.998;2023-02-01T06:15:34;5.83;79.22
52656;SHT85;35474;51.032;6.998;2023-02-01T06:18:03;5.80;79.57
52656;SHT85;35474;51.032;6.998;2023-02-01T06:20:30;5.79;79.62
52656;SHT85;35474;51.032;6.998;2023-02-01T06:22:57;5.85;79.21
52656;SHT85;35474;51.032;6.998;2023-02-01T06:25:24;5.86;79.11
52656;SHT85;35474;51.032;6.998;2023-02-01T06:27:50;5.87;79.20
52656;SHT85;35474;51.032;6.998;2023-02-01T06:30:19;5.83;79.25
52656;SHT85;35474;51.032;6.998;2023-02-01T06:32:49;5.86;79.17
52656;SHT85;35474;51.032;6.998;2023-02-01T06:35:19;5.86;79.09
52656;SHT85;35474;51.032;6.998;2023-02-01T06:37:46;5.87;79.20
52656;SHT85;35474;51.032;6.998;2023-02-01T06:40:13;5.89;79.17
52656;SHT85;35474;51.032;6.998;2023-02-01T06:42:39;5.93;78.99
52656;SHT85;35474;51.032;6.998;2023-02-01T06:45:06;5.92;79.06
52656;SHT85;35474;51.032;6.998;2023-02-01T06:47:33;5.96;78.81
52656;SHT85;35474;51.032;6.998;2023-02-01T06:50:00;5.96;78.85
52656;SHT85;35474;51.032;6.998;2023-02-01T06:52:26;5.96;79.08
52656;SHT85;35474;51.032;6.998;2023-02-01T06:54:53;5.97;78.95
52656;SHT85;35474;51.032;6.998;2023-02-01T06:57:19;5.95;79.04
52656;SHT85;35474;51.032;6.998;2023-02-01T06:59:46;5.96;79.07
52656;SHT85;35474;51.032;6.998;2023-02-01T07:02:12;5.96;79.04
52656;SHT85;35474;51.032;6.998;2023-02-01T07:04:39;6.00;79.00
52656;SHT85;35474;51.032;6.998;2023-02-01T07:07:05;5.97;79.07
52656;SHT85;35474;51.032;6.998;2023-02-01T07:09:32;5.97;79.25
52656;SHT85;35474;51.032;6.998;2023-02-01T07:11:58;5.99;79.23
52656;SHT85;35474;51.032;6.998;2023-02-01T07:14:25;5.96;79.16
52656;SHT85;35474;51.032;6.998;2023-02-01T07:16:51;5.95;79.20
52656;SHT85;35474;51.032;6.998;2023-02-01T07:19:18;5.93;79.36
52656;SHT85;35474;51.032;6.998;2023-02-01T07:21:45;5.96;79.27
52656;SHT85;35474;51.032;6.998;2023-02-01T07:24:12;5.99;79.26
52656;SHT85;35474;51.032;6.998;2023-02-01T07:26:40;5.96;79.40
52656;SHT85;35474;51.032;6.998;2023-02-01T07:32:34;5.92;79.66
52656;SHT85;35474;51.032;6.998;2023-02-01T07:35:01;5.95;79.53
52656;SHT85;35474;51.032;6.998;2023-02-01T07:37:27;5.92;79.65
52656;SHT85;35474;51.032;6.998;2023-02-01T07:39:54;5.96;79.49
52656;SHT85;35474;51.032;6.998;2023-02-01T07:42:20;5.97;79.68
52656;SHT85;35474;51.032;6.998;2023-02-01T07:44:47;5.96;79.67
52656;SHT85;35474;51.032;6.998;2023-02-01T07:47:13;5.95;79.85
52656;SHT85;35474;51.032;6.998;2023-02-01T07:49:40;5.93;79.69
52656;SHT85;35474;51.032;6.998;2023-02-01T07:52:06;5.92;79.81
52656;SHT85;35474;51.032;6.998;2023-02-01T07:54:33;5.99;79.74
52656;SHT85;35474;51.032;6.998;2023-02-01T07:56:59;5.95;79.87
52656;SHT85;35474;51.032;6.998;2023-02-01T07:59:26;5.95;79.78
52656;SHT85;35474;51.032;6.998;2023-02-01T08:01:53;5.96;79.68
52656;SHT85;35474;51.032;6.998;2023-02-01T08:04:19;5.97;79.73
52656;SHT85;35474;51.032;6.998;2023-02-01T08:06:46;5.95;79.66
52656;SHT85;35474;51.032;6.998;2023-02-01T08:09:12;5.96;79.84
52656;SHT85;35474;51.032;6.998;2023-02-01T08:11:39;5.93;79.75
52656;SHT85;35474;51.032;6.998;2023-02-01T08:14:06;5.90;79.90
52656;SHT85;35474;51.032;6.998;2023-02-01T08:16:33;5.93;79.75
52656;SHT85;35474;51.032;6.998;2023-02-01T08:19:01;5.95;79.69
52656;SHT85;35474;51.032;6.998;2023-02-01T08:21:28;5.93;79.81
52656;SHT85;35474;51.032;6.998;2023-02-01T08:24:04;5.93;79.81
52656;SHT85;35474;51.032;6.998;2023-02-01T08:26:32;5.93;79.77
52656;SHT85;35474;51.032;6.998;2023-02-01T08:29:00;5.92;80.01
52656;SHT85;35474;51.032;6.998;2023-02-01T08:31:29;5.97;79.93
52656;SHT85;35474;51.032;6.998;2023-02-01T08:33:57;5.93;79.85
52656;SHT85;35474;51.032;6.998;2023-02-01T08:36:26;5.99;79.78
52656;SHT85;35474;51.032;6.998;2023-02-01T08:38:54;6.00;79.84
52656;SHT85;35474;51.032;6.998;2023-02-01T08:41:22;6.00;79.72
52656;SHT85;35474;51.032;6.998;2023-02-01T08:43:50;6.06;79.74
52656;SHT85;35474;51.032;6.998;2023-02-01T08:46:17;6.06;79.74
52656;SHT85;35474;51.032;6.998;2023-02-01T08:48:45;6.10;79.48
52656;SHT85;35474;51.032;6.998;2023-02-01T08:51:13;6.10;79.41
52656;SHT85;35474;51.032;6.998;2023-02-01T08:53:42;6.13;79.55
52656;SHT85;35474;51.032;6.998;2023-02-01T08:56:09;6.16;79.33
52656;SHT85;35474;51.032;6.998;2023-02-01T08:58:37;6.21;79.35
52656;SHT85;35474;51.032;6.998;2023-02-01T09:01:05;6.21;79.21
52656;SHT85;35474;51.032;6.998;2023-02-01T09:03:39;6.23;79.10
52656;SHT85;35474;51.032;6.998;2023-02-01T09:06:07;6.24;78.86
52656;SHT85;35474;51.032;6.998;2023-02-01T09:08:36;6.20;79.00
52656;SHT85;35474;51.032;6.998;2023-02-01T09:11:07;6.23;78.90
52656;SHT85;35474;51.032;6.998;2023-02-01T09:13:37;6.20;78.85
52656;SHT85;35474;51.032;6.998;2023-02-01T09:16:04;6.27;78.87
52656;SHT85;35474;51.032;6.998;2023-02-01T09:18:31;6.25;78.77
52656;SHT85;35474;51.032;6.998;2023-02-01T09:20:57;6.18;78.95
52656;SHT85;35474;51.032;6.998;2023-02-01T09:23:24;6.20;78.90
52656;SHT85;35474;51.032;6.998;2023-02-01T09:25:51;6.21;79.00
52656;SHT85;35474;51.032;6.998;2023-02-01T09:28:18;6.25;78.85
52656;SHT85;35474;51.032;6.998;2023-02-01T09:30:45;6.21;79.01
52656;SHT85;35474;51.032;6.998;2023-02-01T09:33:12;6.24;78.93
52656;SHT85;35474;51.032;6.998;2023-02-01T09:35:38;6.21;78.85
52656;SHT85;35474;51.032;6.998;2023-02-01T09:38:05;6.25;78.89
52656;SHT85;35474;51.032;6.998;2023-02-01T09:40:33;6.30;78.83
52656;SHT85;35474;51.032;6.998;2023-02-01T09:43:06;6.30;78.75
52656;SHT85;35474;51.032;6.998;2023-02-01T09:48:35;6.37;78.63
52656;SHT85;35474;51.032;6.998;2023-02-01T09:51:10;6.38;78.75
52656;SHT85;35474;51.032;6.998;2023-02-01T09:53:43;6.35;78.76
52656;SHT85;35474;51.032;6.998;2023-02-01T09:56:18;6.35;78.50
52656;SHT85;35474;51.032;6.998;2023-02-01T10:01:25;6.41;78.57
52656;SHT85;35474;51.032;6.998;2023-02-01T10:03:56;6.44;78.60
52656;SHT85;35474;51.032;6.998;2023-02-01T10:06:30;6.42;78.54
52656;SHT85;35474;51.032;6.998;2023-02-01T10:15:40;6.58;78.04
52656;SHT85;35474;51.032;6.998;2023-02-01T10:21:02;6.68;77.90
52656;SHT85;35474;51.032;6.998;2023-02-01T10:26:18;6.75;77.57
52656;SHT85;35474;51.032;6.998;2023-02-01T10:28:51;6.82;77.27
52656;SHT85;35474;51.032;6.998;2023-02-01T10:31:24;7.09;76.60
52656;SHT85;35474;51.032;6.998;2023-02-01T10:33:58;7.16;76.12
52656;SHT85;35474;51.032;6.998;2023-02-01T10:39:08;7.40;75.56
52656;SHT85;35474;51.032;6.998;2023-02-01T10:41:38;7.57;74.63
52656;SHT85;35474;51.032;6.998;2023-02-01T10:44:23;7.78;74.59
52656;SHT85;35474;51.032;6.998;2023-02-01T10:46:53;8.16;72.94
52656;SHT85;35474;51.032;6.998;2023-02-01T10:49:22;8.07;73.13
52656;SHT85;35474;51.032;6.998;2023-02-01T10:52:00;8.13;73.18
52656;SHT85;35474;51.032;6.998;2023-02-01T10:54:33;8.16;72.65
52656;SHT85;35474;51.032;6.998;2023-02-01T10:57:01;8.06;72.50
52656;SHT85;35474;51.032;6.998;2023-02-01T10:59:28;8.44;72.14
52656;SHT85;35474;51.032;6.998;2023-02-01T11:02:00;8.10;72.54
52656;SHT85;35474;51.032;6.998;2023-02-01T11:04:33;7.91;73.04
52656;SHT85;35474;51.032;6.998;2023-02-01T11:07:06;7.89;73.62
52656;SHT85;35474;51.032;6.998;2023-02-01T11:09:48;7.75;73.59
52656;SHT85;35474;51.032;6.998;2023-02-01T11:12:29;7.54;74.43
52656;SHT85;35474;51.032;6.998;2023-02-01T11:15:00;7.42;74.48
52656;SHT85;35474;51.032;6.998;2023-02-01T11:17:38;7.48;74.43
52656;SHT85;35474;51.032;6.998;2023-02-01T11:20:13;7.44;74.58
52656;SHT85;35474;51.032;6.998;2023-02-01T11:22:48;7.48;74.40
52656;SHT85;35474;51.032;6.998;2023-02-01T11:25:20;7.71;73.86
52656;SHT85;35474;51.032;6.998;2023-02-01T11:27:53;7.68;73.80
52656;SHT85;35474;51.032;6.998;2023-02-01T11:30:40;7.61;73.98
52656;SHT85;35474;51.032;6.998;2023-02-01T11:33:12;7.54;74.43
52656;SHT85;35474;51.032;6.998;2023-02-01T11:35:41;7.64;74.18
52656;SHT85;35474;51.032;6.998;2023-02-01T11:40:53;7.70;74.18
52656;SHT85;35474;51.032;6.998;2023-02-01T11:43:24;7.79;73.42
52656;SHT85;35474;51.032;6.998;2023-02-01T11:48:27;7.81;73.83
52656;SHT85;35474;51.032;6.998;2023-02-01T11:53:38;7.70;73.76
52656;SHT85;35474;51.032;6.998;2023-02-01T11:56:35;7.61;73.69
52656;SHT85;35474;51.032;6.998;2023-02-01T12:07:48;7.58;73.97
52656;SHT85;35474;51.032;6.998;2023-02-01T12:15:48;7.61;74.18
52656;SHT85;35474;51.032;6.998;2023-02-01T12:18:28;7.64;74.14
52656;SHT85;35474;51.032;6.998;2023-02-01T12:27:14;7.75;74.19
52656;SHT85;35474;51.032;6.998;2023-02-01T12:32:46;7.79;74.19
52656;SHT85;35474;51.032;6.998;2023-02-01T12:43:50;7.75;74.07
52656;SHT85;35474;51.032;6.998;2023-02-01T12:49:15;7.70;74.19
52656;SHT85;35474;51.032;6.998;2023-02-01T12:51:46;7.68;74.20
52656;SHT85;35474;51.032;6.998;2023-02-01T12:54:20;7.64;74.13
52656;SHT85;35474;51.032;6.998;2023-02-01T12:59:26;7.74;73.78
52656;SHT85;35474;51.032;6.998;2023-02-01T13:04:37;7.67;74.61
52656;SHT85;35474;51.032;6.998;2023-02-01T13:07:12;7.60;75.06
52656;SHT85;35474;51.032;6.998;2023-02-01T13:09:51;7.60;75.03
52656;SHT85;35474;51.032;6.998;2023-02-01T13:12:25;7.71;75.03
52656;SHT85;35474;51.032;6.998;2023-02-01T13:15:00;7.70;74.14
52656;SHT85;35474;51.032;6.998;2023-02-01T13:17:36;7.79;73.54
52656;SHT85;35474;51.032;6.998;2023-02-01T13:20:22;7.79;73.68
52656;SHT85;35474;51.032;6.998;2023-02-01T13:22:57;7.88;73.40
52656;SHT85;35474;51.032;6.998;2023-02-01T13:25:32;7.91;73.58
52656;SHT85;35474;51.032;6.998;2023-02-01T13:28:04;7.89;73.27
52656;SHT85;35474;51.032;6.998;2023-02-01T13:42:25;7.74;74.63
52656;SHT85;35474;51.032;6.998;2023-02-01T13:50:23;7.88;73.57
52656;SHT85;35474;51.032;6.998;2023-02-01T13:52:52;7.92;73.55
52656;SHT85;35474;51.032;6.998;2023-02-01T13:57:49;7.98;73.48
52656;SHT85;35474;51.032;6.998;2023-02-01T14:00:28;7.98;73.10
52656;SHT85;35474;51.032;6.998;2023-02-01T14:10:45;8.10;72.52
52656;SHT85;35474;51.032;6.998;2023-02-01T14:21:17;8.19;72.07
52656;SHT85;35474;51.032;6.998;2023-02-01T14:34:35;8.21;71.73
52656;SHT85;35474;51.032;6.998;2023-02-01T14:37:11;8.28;71.09
52656;SHT85;35474;51.032;6.998;2023-02-01T14:44:43;8.28;71.24
52656;SHT85;35474;51.032;6.998;2023-02-01T14:47:26;8.32;71.07
52656;SHT85;35474;51.032;6.998;2023-02-01T14:52:36;8.33;70.96
52656;SHT85;35474;51.032;6.998;2023-02-01T14:55:12;8.33;71.05
52656;SHT85;35474;51.032;6.998;2023-02-01T14:57:43;8.34;71.15
52656;SHT85;35474;51.032;6.998;2023-02-01T15:02:39;8.37;71.06
52656;SHT85;35474;51.032;6.998;2023-02-01T15:08:00;8.36;71.20
52656;SHT85;35474;51.032;6.998;2023-02-01T15:10:52;8.37;71.27
52656;SHT85;35474;51.032;6.998;2023-02-01T15:13:21;8.30;71.50
52656;SHT85;35474;51.032;6.998;2023-02-01T15:15:59;8.34;71.48
52656;SHT85;35474;51.032;6.998;2023-02-01T15:18:39;8.29;72.00
52656;SHT85;35474;51.032;6.998;2023-02-01T15:21:14;8.29;71.89
52656;SHT85;35474;51.032;6.998;2023-02-01T15:24:11;8.21;72.76
52656;SHT85;35474;51.032;6.998;2023-02-01T15:26:39;8.16;73.32
52656;SHT85;35474;51.032;6.998;2023-02-01T15:29:09;8.18;73.16
52656;SHT85;35474;51.032;6.998;2023-02-01T15:31:38;8.23;72.84
52656;SHT85;35474;51.032;6.998;2023-02-01T15:34:07;8.25;72.68
52656;SHT85;35474;51.032;6.998;2023-02-01T15:36:34;8.28;72.47
52656;SHT85;35474;51.032;6.998;2023-02-01T15:39:11;8.29;72.36
52656;SHT85;35474;51.032;6.998;2023-02-01T15:41:56;8.26;72.64
52656;SHT85;35474;51.032;6.998;2023-02-01T15:44:34;8.30;72.05
52656;SHT85;35474;51.032;6.998;2023-02-01T15:47:27;8.32;71.73
52656;SHT85;35474;51.032;6.998;2023-02-01T15:49:57;8.33;71.60
52656;SHT85;35474;51.032;6.998;2023-02-01T15:52:46;8.37;71.69
52656;SHT85;35474;51.032;6.998;2023-02-01T15:55:22;8.42;71.54
52656;SHT85;35474;51.032;6.998;2023-02-01T15:57:57;8.36;71.62
52656;SHT85;35474;51.032;6.998;2023-02-01T16:00:28;8.36;71.65
52656;SHT85;35474;51.032;6.998;2023-02-01T16:03:02;8.36;71.79
52656;SHT85;35474;51.032;6.998;2023-02-01T16:10:42;8.36;71.84
52656;SHT85;35474;51.032;6.998;2023-02-01T16:13:13;8.37;71.76
52656;SHT85;35474;51.032;6.998;2023-02-01T16:15:42;8.34;71.79
52656;SHT85;35474;51.032;6.998;2023-02-01T16:18:10;8.34;71.86
52656;SHT85;35474;51.032;6.998;2023-02-01T16:20:38;8.44;71.96
52656;SHT85;35474;51.032;6.998;2023-02-01T16:23:06;8.43;71.60
52656;SHT85;35474;51.032;6.998;2023-02-01T16:25:37;8.36;71.87
52656;SHT85;35474;51.032;6.998;2023-02-01T16:28:05;8.42;71.70
52656;SHT85;35474;51.032;6.998;2023-02-01T16:30:32;8.42;71.77
52656;SHT85;35474;51.032;6.998;2023-02-01T16:33:00;8.43;71.93
52656;SHT85;35474;51.032;6.998;2023-02-01T16:35:34;8.39;72.02
52656;SHT85;35474;51.032;6.998;2023-02-01T16:38:10;8.43;72.02
52656;SHT85;35474;51.032;6.998;2023-02-01T16:40:40;8.40;72.31
52656;SHT85;35474;51.032;6.998;2023-02-01T16:43:10;8.37;72.57
52656;SHT85;35474;51.032;6.998;2023-02-01T16:45:42;8.36;72.91
52656;SHT85;35474;51.032;6.998;2023-02-01T16:48:19;8.32;73.24
52656;SHT85;35474;51.032;6.998;2023-02-01T16:50:50;8.28;73.60
52656;SHT85;35474;51.032;6.998;2023-02-01T16:53:28;8.29;73.82
52656;SHT85;35474;51.032;6.998;2023-02-01T16:56:01;8.29;74.06
52656;SHT85;35474;51.032;6.998;2023-02-01T16:58:36;8.25;74.33
52656;SHT85;35474;51.032;6.998;2023-02-01T17:01:04;8.25;74.62
52656;SHT85;35474;51.032;6.998;2023-02-01T17:03:31;8.15;75.07
52656;SHT85;35474;51.032;6.998;2023-02-01T17:05:57;8.16;75.37
52656;SHT85;35474;51.032;6.998;2023-02-01T17:08:32;8.12;75.51
52656;SHT85;35474;51.032;6.998;2023-02-01T17:11:01;8.13;75.64
52656;SHT85;35474;51.032;6.998;2023-02-01T17:13:28;8.15;75.70
52656;SHT85;35474;51.032;6.998;2023-02-01T17:16:02;8.06;76.02
52656;SHT85;35474;51.032;6.998;2023-02-01T17:18:33;8.07;76.11
52656;SHT85;35474;51.032;6.998;2023-02-01T17:21:02;8.05;76.40
52656;SHT85;35474;51.032;6.998;2023-02-01T17:23:31;8.07;76.43
52656;SHT85;35474;51.032;6.998;2023-02-01T17:25:58;8.09;76.24
52656;SHT85;35474;51.032;6.998;2023-02-01T17:28:25;8.07;76.08
52656;SHT85;35474;51.032;6.998;2023-02-01T17:30:51;8.07;76.09
52656;SHT85;35474;51.032;6.998;2023-02-01T17:33:20;8.09;76.19
52656;SHT85;35474;51.032;6.998;2023-02-01T17:35:53;8.09;76.25
52656;SHT85;35474;51.032;6.998;2023-02-01T17:38:21;8.12;76.19
52656;SHT85;35474;51.032;6.998;2023-02-01T17:40:49;8.02;76.38
52656;SHT85;35474;51.032;6.998;2023-02-01T17:43:23;8.03;76.51
52656;SHT85;35474;51.032;6.998;2023-02-01T17:45:53;8.09;76.30
52656;SHT85;35474;51.032;6.998;2023-02-01T17:48:23;8.09;76.30
52656;SHT85;35474;51.032;6.998;2023-02-01T17:50:52;8.06;76.41
52656;SHT85;35474;51.032;6.998;2023-02-01T17:53:26;8.09;76.27
52656;SHT85;35474;51.032;6.998;2023-02-01T17:55:54;8.10;76.24
52656;SHT85;35474;51.032;6.998;2023-02-01T17:58:23;8.06;76.23
52656;SHT85;35474;51.032;6.998;2023-02-01T18:00:51;8.09;76.28
52656;SHT85;35474;51.032;6.998;2023-02-01T18:03:27;8.06;76.33
52656;SHT85;35474;51.032;6.998;2023-02-01T18:05:56;8.06;76.48
52656;SHT85;35474;51.032;6.998;2023-02-01T18:08:25;8.06;76.58
52656;SHT85;35474;51.032;6.998;2023-02-01T18:10:54;7.95;76.88
52656;SHT85;35474;51.032;6.998;2023-02-01T18:13:25;7.92;77.07
52656;SHT85;35474;51.032;6.998;2023-02-01T18:15:56;8.01;76.72
52656;SHT85;35474;51.032;6.998;2023-02-01T18:18:25;8.02;76.70
52656;SHT85;35474;51.032;6.998;2023-02-01T18:20:51;8.07;76.19
52656;SHT85;35474;51.032;6.998;2023-02-01T18:23:19;8.07;76.22
52656;SHT85;35474;51.032;6.998;2023-02-01T18:25:48;7.96;76.87
52656;SHT85;35474;51.032;6.998;2023-02-01T18:28:17;7.86;77.54
52656;SHT85;35474;51.032;6.998;2023-02-01T18:30:48;7.84;77.81
52656;SHT85;35474;51.032;6.998;2023-02-01T18:33:17;7.89;77.82
52656;SHT85;35474;51.032;6.998;2023-02-01T18:35:45;7.89;77.86
52656;SHT85;35474;51.032;6.998;2023-02-01T18:38:12;7.84;78.11
52656;SHT85;35474;51.032;6.998;2023-02-01T18:40:41;7.88;77.98
52656;SHT85;35474;51.032;6.998;2023-02-01T18:43:12;7.85;78.06
52656;SHT85;35474;51.032;6.998;2023-02-01T18:45:40;7.86;78.13
52656;SHT85;35474;51.032;6.998;2023-02-01T18:48:11;7.84;78.07
52656;SHT85;35474;51.032;6.998;2023-02-01T18:50:40;7.85;78.05
52656;SHT85;35474;51.032;6.998;2023-02-01T18:53:11;7.88;77.91
52656;SHT85;35474;51.032;6.998;2023-02-01T18:57:34;7.91;77.65